sensor_id;sensor_type;location;lat;lon;timestamp;temperature;humidity
29775;DHT22;16676;51.202;6.774;2023-03-01T00:00:36;17.20;66.30
29775;DHT22;16676;51.202;6.774;2023-03-01T00:04:38;17.20;66.40
29775;DHT22;16676;51.202;6.774;2023-03-01T00:08:42;17.20;66.40
29775;DHT22;16676;51.202;6.774;2023-03-01T00:12:44;17.20;66.60
29775;DHT22;16676;51.202;6.774;2023-03-01T00:16:46;17.20;66.60
29775;DHT22;16676;51.202;6.774;2023-03-01T00:20:50;17.20;66.60
29775;DHT22;16676;51.202;6.774;2023-03-01T00:24:53;17.10;66.80
29775;DHT22;16676;51.202;6.774;2023-03-01T00:28:57;17.20;66.70
29775;DHT22;16676;51.202;6.774;2023-03-01T00:33:00;17.20;67.00
29775;DHT22;16676;51.202;6.774;2023-03-01T00:37:02;17.10;67.00
29775;DHT22;16676;51.202;6.774;2023-03-01T00:41:08;17.10;67.10
29775;DHT22;16676;51.202;6.774;2023-03-01T00:45:10;17.10;67.00
29775;DHT22;16676;51.202;6.774;2023-03-01T00:49:14;17.10;67.20
29775;DHT22;16676;51.202;6.774;2023-03-01T00:53:15;17.10;67.10
29775;DHT22;16676;51.202;6.774;2023-03-01T00:57:19;17.00;67.00
29775;DHT22;16676;51.202;6.774;2023-03-01T01:01:22;17.00;67.00
29775;DHT22;16676;51.202;6.774;2023-03-01T01:05:24;17.00;67.30
29775;DHT22;16676;51.202;6.774;2023-03-01T01:09:26;17.00;67.30
29775;DHT22;16676;51.202;6.774;2023-03-01T01:13:30;17.00;67.20
29775;DHT22;16676;51.202;6.774;2023-03-01T01:17:31;17.00;67.50
29775;DHT22;16676;51.202;6.774;2023-03-01T01:21:33;17.00;67.50
29775;DHT22;16676;51.202;6.774;2023-03-01T01:25:36;16.90;67.40
29775;DHT22;16676;51.202;6.774;2023-03-01T01:29:40;16.90;67.40
29775;DHT22;16676;51.202;6.774;2023-03-01T01:33:42;16.90;67.30
29775;DHT22;16676;51.202;6.774;2023-03-01T01:37:44;16.90;67.40
29775;DHT22;16676;51.202;6.774;2023-03-01T01:41:46;16.90;67.50
29775;DHT22;16676;51.202;6.774;2023-03-01T01:45:50;16.90;67.60
29775;DHT22;16676;51.202;6.774;2023-03-01T01:49:55;16.80;67.60
29775;DHT22;16676;51.202;6.774;2023-03-01T01:54:00;16.90;67.60
29775;DHT22;16676;51.202;6.774;2023-03-01T01:58:05;16.90;67.70
29775;DHT22;16676;51.202;6.774;2023-03-01T02:02:11;16.80;67.80
29775;DHT22;16676;51.202;6.774;2023-03-01T02:06:19;16.80;67.80
29775;DHT22;16676;51.202;6.774;2023-03-01T02:10:23;16.80;67.90
29775;DHT22;16676;51.202;6.774;2023-03-01T02:14:26;16.80;67.90
29775;DHT22;16676;51.202;6.774;2023-03-01T02:18:29;16.80;67.90
29775;DHT22;16676;51.202;6.774;2023-03-01T02:22:31;16.80;67.90
29775;DHT22;16676;51.202;6.774;2023-03-01T02:26:41;16.80;68.00
29775;DHT22;16676;51.202;6.774;2023-03-01T02:30:47;16.70;67.80
29775;DHT22;16676;51.202;6.774;2023-03-01T02:35:03;16.70;68.00
29775;DHT22;16676;51.202;6.774;2023-03-01T02:44:19;16.70;68.10
29775;DHT22;16676;51.202;6.774;2023-03-01T02:48:23;16.70;68.20
29775;DHT22;16676;51.202;6.774;2023-03-01T02:52:36;16.70;68.30
29775;DHT22;16676;51.202;6.774;2023-03-01T02:56:43;16.70;68.30
29775;DHT22;16676;51.202;6.774;2023-03-01T03:00:48;16.70;68.30
29775;DHT22;16676;51.202;6.774;2023-03-01T03:04:52;16.60;69.00
29775;DHT22;16676;51.202;6.774;2023-03-01T03:08:53;16.70;68.40
29775;DHT22;16676;51.202;6.774;2023-03-01T03:12:57;16.70;68.20
29775;DHT22;16676;51.202;6.774;2023-03-01T03:16:59;16.70;68.30
29775;DHT22;16676;51.202;6.774;2023-03-01T03:21:03;16.60;68.20
29775;DHT22;16676;51.202;6.774;2023-03-01T03:25:10;16.60;68.20
29775;DHT22;16676;51.202;6.774;2023-03-01T03:29:12;16.60;68.30
29775;DHT22;16676;51.202;6.774;2023-03-01T03:33:14;16.60;68.30
29775;DHT22;16676;51.202;6.774;2023-03-01T03:37:17;16.60;68.20
29775;DHT22;16676;51.202;6.774;2023-03-01T03:41:34;16.60;68.20
29775;DHT22;16676;51.202;6.774;2023-03-01T03:45:37;16.60;69.00
29775;DHT22;16676;51.202;6.774;2023-03-01T03:49:39;16.60;68.20
29775;DHT22;16676;51.202;6.774;2023-03-01T03:53:42;16.50;68.20
29775;DHT22;16676;51.202;6.774;2023-03-01T03:57:46;16.50;68.30
29775;DHT22;16676;51.202;6.774;2023-03-01T04:01:51;16.50;68.10
29775;DHT22;16676;51.202;6.774;2023-03-01T04:05:53;16.50;68.30
29775;DHT22;16676;51.202;6.774;2023-03-01T04:09:57;16.50;68.50
29775;DHT22;16676;51.202;6.774;2023-03-01T04:13:59;16.50;68.30
29775;DHT22;16676;51.202;6.774;2023-03-01T04:18:01;16.50;68.40
29775;DHT22;16676;51.202;6.774;2023-03-01T04:22:03;16.50;68.30
29775;DHT22;16676;51.202;6.774;2023-03-01T04:26:11;16.40;68.40
29775;DHT22;16676;51.202;6.774;2023-03-01T04:30:13;16.40;68.30
29775;DHT22;16676;51.202;6.774;2023-03-01T04:34:16;16.40;68.40
29775;DHT22;16676;51.202;6.774;2023-03-01T04:38:19;16.40;68.40
29775;DHT22;16676;51.202;6.774;2023-03-01T04:42:23;16.40;68.30
29775;DHT22;16676;51.202;6.774;2023-03-01T04:46:25;16.40;68.40
29775;DHT22;16676;51.202;6.774;2023-03-01T04:50:27;16.40;68.40
29775;DHT22;16676;51.202;6.774;2023-03-01T04:54:29;16.40;68.30
29775;DHT22;16676;51.202;6.774;2023-03-01T04:58:33;16.40;68.30
29775;DHT22;16676;51.202;6.774;2023-03-01T05:02:35;16.40;68.40
29775;DHT22;16676;51.202;6.774;2023-03-01T05:06:37;16.30;68.50
29775;DHT22;16676;51.202;6.774;2023-03-01T05:10:39;16.30;68.30
29775;DHT22;16676;51.202;6.774;2023-03-01T05:14:43;16.30;68.30
29775;DHT22;16676;51.202;6.774;2023-03-01T05:18:44;16.30;68.20
29775;DHT22;16676;51.202;6.774;2023-03-01T05:22:46;16.30;68.30
29775;DHT22;16676;51.202;6.774;2023-03-01T05:26:48;16.30;68.20
29775;DHT22;16676;51.202;6.774;2023-03-01T05:30:54;16.30;68.20
29775;DHT22;16676;51.202;6.774;2023-03-01T05:34:55;16.30;68.20
29775;DHT22;16676;51.202;6.774;2023-03-01T05:38:57;16.30;68.10
29775;DHT22;16676;51.202;6.774;2023-03-01T05:42:59;16.30;68.20
29775;DHT22;16676;51.202;6.774;2023-03-01T05:47:03;16.30;68.30
29775;DHT22;16676;51.202;6.774;2023-03-01T05:51:05;16.30;68.40
29775;DHT22;16676;51.202;6.774;2023-03-01T05:55:08;16.20;68.50
29775;DHT22;16676;51.202;6.774;2023-03-01T05:59:11;16.30;68.50
29775;DHT22;16676;51.202;6.774;2023-03-01T06:03:17;16.30;68.40
29775;DHT22;16676;51.202;6.774;2023-03-01T06:07:19;16.30;68.30
29775;DHT22;16676;51.202;6.774;2023-03-01T06:11:21;16.20;68.30
29775;DHT22;16676;51.202;6.774;2023-03-01T06:15:24;16.20;68.40
29775;DHT22;16676;51.202;6.774;2023-03-01T06:19:27;16.20;68.30
29775;DHT22;16676;51.202;6.774;2023-03-01T06:23:30;16.20;68.20
29775;DHT22;16676;51.202;6.774;2023-03-01T06:27:32;16.30;68.20
29775;DHT22;16676;51.202;6.774;2023-03-01T06:31:34;16.30;68.30
29775;DHT22;16676;51.202;6.774;2023-03-01T06:35:37;16.40;68.00
29775;DHT22;16676;51.202;6.774;2023-03-01T06:39:39;16.40;68.10
29775;DHT22;16676;51.202;6.774;2023-03-01T06:43:41;16.40;68.30
29775;DHT22;16676;51.202;6.774;2023-03-01T06:47:43;16.50;69.30
29775;DHT22;16676;51.202;6.774;2023-03-01T06:51:46;16.50;68.50
29775;DHT22;16676;51.202;6.774;2023-03-01T06:55:54;16.70;67.60
29775;DHT22;16676;51.202;6.774;2023-03-01T06:59:56;17.10;65.80
29775;DHT22;16676;51.202;6.774;2023-03-01T07:03:58;17.40;64.20
29775;DHT22;16676;51.202;6.774;2023-03-01T07:08:01;17.70;62.80
29775;DHT22;16676;51.202;6.774;2023-03-01T07:12:03;18.00;61.40
29775;DHT22;16676;51.202;6.774;2023-03-01T07:16:06;18.40;60.20
29775;DHT22;16676;51.202;6.774;2023-03-01T07:20:09;18.70;59.00
29775;DHT22;16676;51.202;6.774;2023-03-01T07:24:13;19.00;57.90
29775;DHT22;16676;51.202;6.774;2023-03-01T07:28:15;19.40;56.80
29775;DHT22;16676;51.202;6.774;2023-03-01T07:32:17;19.60;55.90
29775;DHT22;16676;51.202;6.774;2023-03-01T07:36:19;19.80;55.50
29775;DHT22;16676;51.202;6.774;2023-03-01T07:40:22;20.10;54.50
29775;DHT22;16676;51.202;6.774;2023-03-01T07:44:24;20.40;53.60
29775;DHT22;16676;51.202;6.774;2023-03-01T07:48:26;20.40;53.20
29775;DHT22;16676;51.202;6.774;2023-03-01T07:52:28;19.90;54.70
29775;DHT22;16676;51.202;6.774;2023-03-01T07:56:31;19.20;56.50
29775;DHT22;16676;51.202;6.774;2023-03-01T08:00:33;18.80;58.10
29775;DHT22;16676;51.202;6.774;2023-03-01T08:04:35;18.50;59.00
29775;DHT22;16676;51.202;6.774;2023-03-01T08:08:37;18.40;59.60
29775;DHT22;16676;51.202;6.774;2023-03-01T08:12:40;18.20;60.00
29775;DHT22;16676;51.202;6.774;2023-03-01T08:16:42;18.20;60.40
29775;DHT22;16676;51.202;6.774;2023-03-01T08:20:44;18.10;60.70
29775;DHT22;16676;51.202;6.774;2023-03-01T08:24:46;18.20;60.60
29775;DHT22;16676;51.202;6.774;2023-03-01T08:28:50;19.20;58.00
29775;DHT22;16676;51.202;6.774;2023-03-01T08:32:52;20.30;54.90
29775;DHT22;16676;51.202;6.774;2023-03-01T08:36:54;20.90;52.10
29775;DHT22;16676;51.202;6.774;2023-03-01T08:40:59;20.90;51.70
29775;DHT22;16676;51.202;6.774;2023-03-01T08:45:03;20.70;52.80
29775;DHT22;16676;51.202;6.774;2023-03-01T08:49:05;20.20;53.90
29775;DHT22;16676;51.202;6.774;2023-03-01T08:53:07;19.80;55.50
29775;DHT22;16676;51.202;6.774;2023-03-01T08:57:09;19.50;56.60
29775;DHT22;16676;51.202;6.774;2023-03-01T09:01:14;19.20;57.30
29775;DHT22;16676;51.202;6.774;2023-03-01T09:05:17;19.00;58.00
29775;DHT22;16676;51.202;6.774;2023-03-01T09:09:19;18.80;58.70
29775;DHT22;16676;51.202;6.774;2023-03-01T09:13:20;18.70;59.10
29775;DHT22;16676;51.202;6.774;2023-03-01T09:17:25;18.50;59.50
29775;DHT22;16676;51.202;6.774;2023-03-01T09:21:27;18.40;60.00
29775;DHT22;16676;51.202;6.774;2023-03-01T09:25:29;18.30;60.40
29775;DHT22;16676;51.202;6.774;2023-03-01T09:29:31;18.30;60.80
29775;DHT22;16676;51.202;6.774;2023-03-01T09:33:35;18.30;60.90
29775;DHT22;16676;51.202;6.774;2023-03-01T09:37:37;18.20;61.10
29775;DHT22;16676;51.202;6.774;2023-03-01T09:41:46;18.20;61.00
29775;DHT22;16676;51.202;6.774;2023-03-01T09:45:50;18.20;61.10
29775;DHT22;16676;51.202;6.774;2023-03-01T09:49:59;18.20;60.80
29775;DHT22;16676;51.202;6.774;2023-03-01T09:54:02;18.20;60.80
29775;DHT22;16676;51.202;6.774;2023-03-01T09:58:31;18.20;60.90
29775;DHT22;16676;51.202;6.774;2023-03-01T10:02:39;18.20;60.90
29775;DHT22;16676;51.202;6.774;2023-03-01T10:06:49;18.10;60.80
29775;DHT22;16676;51.202;6.774;2023-03-01T10:10:53;18.20;60.80
29775;DHT22;16676;51.202;6.774;2023-03-01T10:14:59;18.20;60.60
29775;DHT22;16676;51.202;6.774;2023-03-01T10:19:05;18.20;61.20
29775;DHT22;16676;51.202;6.774;2023-03-01T10:23:09;18.20;60.50
29775;DHT22;16676;51.202;6.774;2023-03-01T10:27:16;18.20;60.40
29775;DHT22;16676;51.202;6.774;2023-03-01T10:31:22;18.20;60.40
29775;DHT22;16676;51.202;6.774;2023-03-01T10:35:34;18.20;60.40
29775;DHT22;16676;51.202;6.774;2023-03-01T10:39:54;18.20;60.60
29775;DHT22;16676;51.202;6.774;2023-03-01T10:43:58;18.10;61.10
29775;DHT22;16676;51.202;6.774;2023-03-01T10:48:05;18.10;61.10
29775;DHT22;16676;51.202;6.774;2023-03-01T10:52:17;18.10;61.10
29775;DHT22;16676;51.202;6.774;2023-03-01T10:56:21;18.20;61.00
29775;DHT22;16676;51.202;6.774;2023-03-01T11:00:25;18.10;61.10
29775;DHT22;16676;51.202;6.774;2023-03-01T11:04:27;18.20;61.00
29775;DHT22;16676;51.202;6.774;2023-03-01T11:08:40;18.20;60.70
29775;DHT22;16676;51.202;6.774;2023-03-01T11:12:44;18.20;60.70
29775;DHT22;16676;51.202;6.774;2023-03-01T11:16:48;18.30;60.60
29775;DHT22;16676;51.202;6.774;2023-03-01T11:20:53;18.30;60.50
29775;DHT22;16676;51.202;6.774;2023-03-01T11:24:56;18.30;60.40
29775;DHT22;16676;51.202;6.774;2023-03-01T11:29:03;18.40;60.30
29775;DHT22;16676;51.202;6.774;2023-03-01T11:33:15;18.40;60.10
29775;DHT22;16676;51.202;6.774;2023-03-01T11:37:28;18.40;60.10
29775;DHT22;16676;51.202;6.774;2023-03-01T11:41:35;18.40;60.10
29775;DHT22;16676;51.202;6.774;2023-03-01T11:45:52;18.40;60.00
29775;DHT22;16676;51.202;6.774;2023-03-01T11:50:15;18.40;59.90
29775;DHT22;16676;51.202;6.774;2023-03-01T11:54:29;18.50;59.70
29775;DHT22;16676;51.202;6.774;2023-03-01T11:58:55;18.50;59.50
29775;DHT22;16676;51.202;6.774;2023-03-01T12:03:26;18.50;59.60
29775;DHT22;16676;51.202;6.774;2023-03-01T12:07:36;18.60;59.40
29775;DHT22;16676;51.202;6.774;2023-03-01T12:11:55;18.60;59.10
29775;DHT22;16676;51.202;6.774;2023-03-01T12:16:15;18.60;59.00
29775;DHT22;16676;51.202;6.774;2023-03-01T12:20:26;18.60;59.00
29775;DHT22;16676;51.202;6.774;2023-03-01T12:24:47;18.70;59.00
29775;DHT22;16676;51.202;6.774;2023-03-01T12:29:08;18.70;58.90
29775;DHT22;16676;51.202;6.774;2023-03-01T12:33:22;18.70;58.70
29775;DHT22;16676;51.202;6.774;2023-03-01T12:37:36;18.80;58.50
29775;DHT22;16676;51.202;6.774;2023-03-01T12:41:47;18.80;58.30
29775;DHT22;16676;51.202;6.774;2023-03-01T12:50:40;18.90;58.80
29775;DHT22;16676;51.202;6.774;2023-03-01T12:54:44;18.90;58.00
29775;DHT22;16676;51.202;6.774;2023-03-01T12:58:54;19.00;58.10
29775;DHT22;16676;51.202;6.774;2023-03-01T13:03:09;19.00;58.00
29775;DHT22;16676;51.202;6.774;2023-03-01T13:07:22;19.00;57.90
29775;DHT22;16676;51.202;6.774;2023-03-01T13:11:28;19.00;57.70
29775;DHT22;16676;51.202;6.774;2023-03-01T13:15:34;19.10;57.70
29775;DHT22;16676;51.202;6.774;2023-03-01T13:19:36;19.10;57.60
29775;DHT22;16676;51.202;6.774;2023-03-01T13:23:40;19.10;57.50
29775;DHT22;16676;51.202;6.774;2023-03-01T13:27:50;19.10;57.50
29775;DHT22;16676;51.202;6.774;2023-03-01T13:31:57;19.10;57.40
29775;DHT22;16676;51.202;6.774;2023-03-01T13:36:00;19.10;57.80
29775;DHT22;16676;51.202;6.774;2023-03-01T13:40:56;19.10;57.10
29775;DHT22;16676;51.202;6.774;2023-03-01T13:44:34;19.20;57.00
29775;DHT22;16676;51.202;6.774;2023-03-01T13:48:39;19.10;57.10
29775;DHT22;16676;51.202;6.774;2023-03-01T13:52:44;19.10;57.10
29775;DHT22;16676;51.202;6.774;2023-03-01T13:56:46;19.10;57.10
29775;DHT22;16676;51.202;6.774;2023-03-01T14:00:56;19.00;57.10
29775;DHT22;16676;51.202;6.774;2023-03-01T14:04:59;19.00;57.10
29775;DHT22;16676;51.202;6.774;2023-03-01T14:09:05;19.00;57.10
29775;DHT22;16676;51.202;6.774;2023-03-01T14:13:25;18.90;57.30
29775;DHT22;16676;51.202;6.774;2023-03-01T14:17:47;18.90;57.20
29775;DHT22;16676;51.202;6.774;2023-03-01T14:21:59;18.90;57.20
29775;DHT22;16676;51.202;6.774;2023-03-01T14:26:03;18.90;57.30
29775;DHT22;16676;51.202;6.774;2023-03-01T14:30:13;18.90;57.40
29775;DHT22;16676;51.202;6.774;2023-03-01T14:34:20;18.90;58.00
29775;DHT22;16676;51.202;6.774;2023-03-01T14:38:27;18.90;57.40
29775;DHT22;16676;51.202;6.774;2023-03-01T14:42:34;18.80;57.30
29775;DHT22;16676;51.202;6.774;2023-03-01T14:46:38;18.80;57.90
29775;DHT22;16676;51.202;6.774;2023-03-01T14:50:43;18.90;57.20
29775;DHT22;16676;51.202;6.774;2023-03-01T14:54:47;18.80;57.20
29775;DHT22;16676;51.202;6.774;2023-03-01T14:58:52;18.80;57.20
29775;DHT22;16676;51.202;6.774;2023-03-01T15:02:55;18.80;57.20
29775;DHT22;16676;51.202;6.774;2023-03-01T15:06:59;18.80;57.30
29775;DHT22;16676;51.202;6.774;2023-03-01T15:11:17;18.80;57.20
29775;DHT22;16676;51.202;6.774;2023-03-01T15:15:35;18.80;57.30
29775;DHT22;16676;51.202;6.774;2023-03-01T15:19:37;18.80;57.30
29775;DHT22;16676;51.202;6.774;2023-03-01T15:23:40;18.80;57.30
29775;DHT22;16676;51.202;6.774;2023-03-01T15:27:45;18.80;57.30
29775;DHT22;16676;51.202;6.774;2023-03-01T15:31:54;18.70;57.30
29775;DHT22;16676;51.202;6.774;2023-03-01T15:35:57;18.70;57.20
29775;DHT22;16676;51.202;6.774;2023-03-01T15:40:01;18.70;57.30
29775;DHT22;16676;51.202;6.774;2023-03-01T15:44:15;18.70;57.30
29775;DHT22;16676;51.202;6.774;2023-03-01T15:48:19;18.70;57.40
29775;DHT22;16676;51.202;6.774;2023-03-01T15:52:24;18.60;57.40
29775;DHT22;16676;51.202;6.774;2023-03-01T15:56:30;18.60;57.50
29775;DHT22;16676;51.202;6.774;2023-03-01T16:00:33;18.60;57.60
29775;DHT22;16676;51.202;6.774;2023-03-01T16:04:35;18.50;57.70
29775;DHT22;16676;51.202;6.774;2023-03-01T16:08:37;18.50;57.70
29775;DHT22;16676;51.202;6.774;2023-03-01T16:12:40;18.50;57.70
29775;DHT22;16676;51.202;6.774;2023-03-01T16:16:42;18.50;57.90
29775;DHT22;16676;51.202;6.774;2023-03-01T16:20:45;18.50;57.90
29775;DHT22;16676;51.202;6.774;2023-03-01T16:24:47;18.40;57.90
29775;DHT22;16676;51.202;6.774;2023-03-01T16:28:54;18.40;58.10
29775;DHT22;16676;51.202;6.774;2023-03-01T16:32:57;18.40;58.10
29775;DHT22;16676;51.202;6.774;2023-03-01T16:36:59;18.30;58.20
29775;DHT22;16676;51.202;6.774;2023-03-01T16:41:02;18.20;58.10
29775;DHT22;16676;51.202;6.774;2023-03-01T16:45:06;18.20;58.20
29775;DHT22;16676;51.202;6.774;2023-03-01T16:49:08;18.20;58.30
29775;DHT22;16676;51.202;6.774;2023-03-01T16:53:10;18.20;58.40
29775;DHT22;16676;51.202;6.774;2023-03-01T16:57:12;18.20;58.40
29775;DHT22;16676;51.202;6.774;2023-03-01T17:01:18;18.20;58.60
29775;DHT22;16676;51.202;6.774;2023-03-01T17:05:20;18.10;58.70
29775;DHT22;16676;51.202;6.774;2023-03-01T17:09:24;18.10;58.70
29775;DHT22;16676;51.202;6.774;2023-03-01T17:13:26;18.10;58.70
29775;DHT22;16676;51.202;6.774;2023-03-01T17:17:29;18.10;59.40
29775;DHT22;16676;51.202;6.774;2023-03-01T17:21:31;18.10;58.90
29775;DHT22;16676;51.202;6.774;2023-03-01T17:25:34;18.00;58.90
29775;DHT22;16676;51.202;6.774;2023-03-01T17:29:36;18.00;59.10
29775;DHT22;16676;51.202;6.774;2023-03-01T17:33:39;18.00;59.30
29775;DHT22;16676;51.202;6.774;2023-03-01T17:37:41;18.00;59.50
29775;DHT22;16676;51.202;6.774;2023-03-01T17:41:45;18.00;59.70
29775;DHT22;16676;51.202;6.774;2023-03-01T17:45:47;18.00;59.40
29775;DHT22;16676;51.202;6.774;2023-03-01T17:49:53;18.00;59.80
29775;DHT22;16676;51.202;6.774;2023-03-01T17:53:55;17.90;60.10
29775;DHT22;16676;51.202;6.774;2023-03-01T17:57:57;17.90;60.20
29775;DHT22;16676;51.202;6.774;2023-03-01T18:01:59;18.00;60.70
29775;DHT22;16676;51.202;6.774;2023-03-01T18:06:08;18.00;61.00
29775;DHT22;16676;51.202;6.774;2023-03-01T18:10:11;18.00;61.70
29775;DHT22;16676;51.202;6.774;2023-03-01T18:14:13;18.00;62.10
29775;DHT22;16676;51.202;6.774;2023-03-01T18:18:15;18.00;62.80
29775;DHT22;16676;51.202;6.774;2023-03-01T18:22:18;18.00;62.60
29775;DHT22;16676;51.202;6.774;2023-03-01T18:26:21;18.00;63.40
29775;DHT22;16676;51.202;6.774;2023-03-01T18:30:24;17.90;64.50
29775;DHT22;16676;51.202;6.774;2023-03-01T18:34:26;17.90;65.00
29775;DHT22;16676;51.202;6.774;2023-03-01T18:38:29;17.90;66.70
29775;DHT22;16676;51.202;6.774;2023-03-01T18:42:31;18.00;67.50
29775;DHT22;16676;51.202;6.774;2023-03-01T18:46:33;18.00;67.80
29775;DHT22;16676;51.202;6.774;2023-03-01T18:50:36;18.00;67.80
29775;DHT22;16676;51.202;6.774;2023-03-01T18:54:39;17.90;67.70
29775;DHT22;16676;51.202;6.774;2023-03-01T18:58:42;17.90;68.10
29775;DHT22;16676;51.202;6.774;2023-03-01T19:02:44;17.90;67.70
29775;DHT22;16676;51.202;6.774;2023-03-01T19:06:47;17.80;67.80
29775;DHT22;16676;51.202;6.774;2023-03-01T19:10:55;17.80;67.50
29775;DHT22;16676;51.202;6.774;2023-03-01T19:14:57;17.80;67.00
29775;DHT22;16676;51.202;6.774;2023-03-01T19:19:01;17.80;66.70
29775;DHT22;16676;51.202;6.774;2023-03-01T19:23:04;17.80;66.60
29775;DHT22;16676;51.202;6.774;2023-03-01T19:27:07;17.80;66.30
29775;DHT22;16676;51.202;6.774;2023-03-01T19:31:11;17.80;67.00
29775;DHT22;16676;51.202;6.774;2023-03-01T19:35:14;17.80;66.40
29775;DHT22;16676;51.202;6.774;2023-03-01T19:39:16;17.80;67.00
29775;DHT22;16676;51.202;6.774;2023-03-01T19:43:20;17.80;67.10
29775;DHT22;16676;51.202;6.774;2023-03-01T19:47:22;17.80;67.90
29775;DHT22;16676;51.202;6.774;2023-03-01T19:51:24;17.80;68.10
29775;DHT22;16676;51.202;6.774;2023-03-01T19:55:26;17.70;68.10
29775;DHT22;16676;51.202;6.774;2023-03-01T19:59:29;17.70;68.00
29775;DHT22;16676;51.202;6.774;2023-03-01T20:03:33;17.60;68.00
29775;DHT22;16676;51.202;6.774;2023-03-01T20:07:35;17.60;67.90
29775;DHT22;16676;51.202;6.774;2023-03-01T20:11:37;17.60;67.70
29775;DHT22;16676;51.202;6.774;2023-03-01T20:15:41;17.50;67.50
29775;DHT22;16676;51.202;6.774;2023-03-01T20:19:44;17.50;67.80
29775;DHT22;16676;51.202;6.774;2023-03-01T20:23:46;17.50;67.60
29775;DHT22;16676;51.202;6.774;2023-03-01T20:27:48;17.50;67.50
29775;DHT22;16676;51.202;6.774;2023-03-01T20:31:52;17.50;67.40
29775;DHT22;16676;51.202;6.774;2023-03-01T20:35:54;17.40;67.60
29775;DHT22;16676;51.202;6.774;2023-03-01T20:39:56;17.50;67.90
29775;DHT22;16676;51.202;6.774;2023-03-01T20:43:58;17.60;67.80
29775;DHT22;16676;51.202;6.774;2023-03-01T20:48:02;17.70;68.00
29775;DHT22;16676;51.202;6.774;2023-03-01T20:52:04;17.70;67.50
29775;DHT22;16676;51.202;6.774;2023-03-01T20:56:08;17.70;67.00
29775;DHT22;16676;51.202;6.774;2023-03-01T21:00:11;17.70;66.70
29775;DHT22;16676;51.202;6.774;2023-03-01T21:04:15;17.70;67.00
29775;DHT22;16676;51.202;6.774;2023-03-01T21:08:17;17.70;67.50
29775;DHT22;16676;51.202;6.774;2023-03-01T21:12:19;17.80;67.30
29775;DHT22;16676;51.202;6.774;2023-03-01T21:16:21;17.70;67.20
29775;DHT22;16676;51.202;6.774;2023-03-01T21:20:24;17.70;67.50
29775;DHT22;16676;51.202;6.774;2023-03-01T21:24:26;17.70;67.40
29775;DHT22;16676;51.202;6.774;2023-03-01T21:28:28;17.70;67.20
29775;DHT22;16676;51.202;6.774;2023-03-01T21:32:32;17.70;67.60
29775;DHT22;16676;51.202;6.774;2023-03-01T21:36:36;17.60;67.20
29775;DHT22;16676;51.202;6.774;2023-03-01T21:40:37;17.60;67.30
29775;DHT22;16676;51.202;6.774;2023-03-01T21:44:39;17.60;67.50
29775;DHT22;16676;51.202;6.774;2023-03-01T21:48:42;17.60;67.80
29775;DHT22;16676;51.202;6.774;2023-03-01T21:52:46;17.60;67.80
29775;DHT22;16676;51.202;6.774;2023-03-01T21:56:48;17.60;67.70
29775;DHT22;16676;51.202;6.774;2023-03-01T22:00:50;17.60;67.80
29775;DHT22;16676;51.202;6.774;2023-03-01T22:04:52;17.50;68.00
29775;DHT22;16676;51.202;6.774;2023-03-01T22:09:00;17.50;68.00
29775;DHT22;16676;51.202;6.774;2023-03-01T22:13:04;17.50;67.90
29775;DHT22;16676;51.202;6.774;2023-03-01T22:17:06;17.50;68.10
29775;DHT22;16676;51.202;6.774;2023-03-01T22:21:08;17.50;68.20
29775;DHT22;16676;51.202;6.774;2023-03-01T22:25:12;17.50;68.20
29775;DHT22;16676;51.202;6.774;2023-03-01T22:29:16;17.50;68.40
29775;DHT22;16676;51.202;6.774;2023-03-01T22:33:18;17.50;68.40
29775;DHT22;16676;51.202;6.774;2023-03-01T22:37:20;17.50;68.50
29775;DHT22;16676;51.202;6.774;2023-03-01T22:41:23;17.50;68.50
29775;DHT22;16676;51.202;6.774;2023-03-01T22:45:27;17.50;68.40
29775;DHT22;16676;51.202;6.774;2023-03-01T22:49:29;17.40;68.40
29775;DHT22;16676;51.202;6.774;2023-03-01T22:53:31;17.40;68.40
29775;DHT22;16676;51.202;6.774;2023-03-01T22:57:34;17.40;68.50
29775;DHT22;16676;51.202;6.774;2023-03-01T23:01:38;17.40;68.70
29775;DHT22;16676;51.202;6.774;2023-03-01T23:05:40;17.40;68.50
29775;DHT22;16676;51.202;6.774;2023-03-01T23:09:43;17.40;68.60
29775;DHT22;16676;51.202;6.774;2023-03-01T23:13:46;17.30;68.50
29775;DHT22;16676;51.202;6.774;2023-03-01T23:17:48;17.30;68.40
29775;DHT22;16676;51.202;6.774;2023-03-01T23:21:50;17.30;68.40
29775;DHT22;16676;51.202;6.774;2023-03-01T23:25:54;17.30;68.40
29775;DHT22;16676;51.202;6.774;2023-03-01T23:29:58;17.30;68.40
29775;DHT22;16676;51.202;6.774;2023-03-01T23:34:00;17.30;68.30
29775;DHT22;16676;51.202;6.774;2023-03-01T23:38:02;17.30;68.20
29775;DHT22;16676;51.202;6.774;2023-03-01T23:42:04;17.20;68.10
29775;DHT22;16676;51.202;6.774;2023-03-01T23:46:07;17.20;68.20
29775;DHT22;16676;51.202;6.774;2023-03-01T23:50:14;17.20;68.10
29775;DHT22;16676;51.202;6.774;2023-03-01T23:54:18;17.20;68.10
29775;DHT22;16676;51.202;6.774;2023-03-01T23:58:20;17.20;68.40
